createdAt,value
2022-10-22T00:01:56.628Z,93.99
2022-10-22T00:04:22.994Z,94.09
2022-10-22T00:06:49.363Z,94.22
2022-10-22T00:09:15.755Z,94.32
2022-10-22T00:11:43.067Z,94.45
2022-10-22T00:14:09.608Z,94.42
2022-10-22T00:16:35.914Z,94.54
2022-10-22T00:19:02.244Z,94.61
2022-10-22T00:21:30.634Z,94.54
2022-10-22T00:23:56.939Z,94.43
2022-10-22T00:26:23.436Z,94.51
2022-10-22T00:28:49.793Z,94.51
2022-10-22T00:31:16.137Z,94.45
2022-10-22T00:33:42.514Z,94.46
2022-10-22T00:36:09.057Z,94.32
2022-10-22T00:38:35.375Z,94.32
2022-10-22T00:43:33.107Z,94.43
2022-10-22T00:45:59.503Z,94.22
2022-10-22T00:48:29.855Z,94.60
2022-10-22T00:51:08.154Z,94.83
2022-10-22T00:53:38.759Z,95.02
2022-10-22T00:56:06.423Z,94.96
2022-10-22T00:58:36.727Z,95.08
2022-10-22T01:01:05.340Z,95.03
2022-10-22T01:03:32.333Z,95.00
2022-10-22T01:06:03.173Z,95.19
2022-10-22T01:08:43.057Z,95.40
2022-10-22T01:11:19.048Z,95.23
2022-10-22T01:14:04.449Z,95.22
2022-10-22T01:16:53.808Z,95.33
2022-10-22T01:19:41.153Z,95.32
2022-10-22T01:22:34.998Z,95.50
2022-10-22T01:25:29.854Z,95.56
2022-10-22T01:28:19.903Z,95.39
2022-10-22T01:30:49.252Z,95.47
2022-10-22T01:33:21.857Z,95.64
2022-10-22T01:35:49.140Z,95.62
2022-10-22T01:38:20.211Z,95.78
2022-10-22T01:40:47.997Z,95.66
2022-10-22T01:43:14.379Z,95.61
2022-10-22T01:45:48.419Z,95.60
2022-10-22T01:48:30.688Z,95.73
2022-10-22T01:51:12.302Z,96.15
2022-10-22T01:53:41.692Z,95.69
2022-10-22T01:56:26.268Z,95.69
2022-10-22T01:59:07.129Z,95.84
2022-10-22T02:01:52.321Z,95.74
2022-10-22T02:04:25.301Z,95.81
2022-10-22T02:06:54.768Z,95.65
2022-10-22T02:09:24.073Z,95.66
2022-10-22T02:11:51.698Z,95.34
2022-10-22T02:14:19.731Z,95.51
2022-10-22T02:16:49.388Z,95.69
2022-10-22T02:19:36.824Z,95.66
2022-10-22T02:22:03.966Z,95.61
2022-10-22T02:24:31.243Z,95.67
2022-10-22T02:27:16.585Z,95.64
2022-10-22T02:30:04.815Z,95.68
2022-10-22T02:32:38.620Z,95.73
2022-10-22T02:35:06.404Z,95.54
2022-10-22T02:37:32.794Z,95.60
2022-10-22T02:39:59.114Z,95.74
2022-10-22T02:42:26.448Z,96.06
2022-10-22T02:44:52.929Z,96.00
2022-10-22T02:47:19.328Z,96.07
2022-10-22T02:49:45.671Z,95.93
2022-10-22T02:52:11.986Z,95.92
2022-10-22T02:54:38.325Z,95.96
2022-10-22T02:57:04.759Z,95.98
2022-10-22T02:59:31.089Z,96.02
2022-10-22T03:01:57.415Z,96.21
2022-10-22T03:04:23.748Z,96.00
2022-10-22T03:06:50.208Z,96.07
2022-10-22T03:09:20.053Z,96.10
2022-10-22T03:11:48.989Z,96.23
2022-10-22T03:14:15.303Z,96.27
2022-10-22T03:16:41.607Z,96.36
2022-10-22T03:19:08.014Z,96.18
2022-10-22T03:22:00.829Z,96.54
2022-10-22T03:24:35.708Z,96.61
2022-10-22T03:27:02.421Z,96.55
2022-10-22T03:29:29.184Z,96.25
2022-10-22T03:31:55.539Z,96.50
2022-10-22T03:34:21.916Z,96.39
2022-10-22T03:36:49.174Z,96.29
2022-10-22T03:39:18.156Z,96.32
2022-10-22T03:41:45.535Z,96.52
2022-10-22T03:44:12.569Z,96.57
2022-10-22T03:46:38.898Z,96.57
2022-10-22T03:49:05.254Z,96.67
2022-10-22T03:51:31.745Z,96.58
2022-10-22T03:53:58.044Z,96.42
2022-10-22T03:56:24.493Z,96.42
2022-10-22T03:58:51.228Z,96.34
2022-10-22T04:01:17.662Z,96.54
2022-10-22T04:03:44.009Z,96.46
2022-10-22T04:06:12.613Z,96.43
2022-10-22T04:08:40.971Z,96.49
2022-10-22T04:11:07.961Z,96.55
2022-10-22T04:13:34.454Z,96.49
2022-10-22T04:16:14.369Z,96.25
2022-10-22T04:18:41.704Z,96.40
2022-10-22T04:21:09.855Z,96.51
2022-10-22T04:23:36.723Z,96.31
2022-10-22T04:26:05.781Z,96.41
2022-10-22T04:28:32.312Z,96.24
2022-10-22T04:30:58.707Z,96.53
2022-10-22T04:33:25.376Z,96.64
2022-10-22T04:35:51.701Z,96.50
2022-10-22T04:38:18.015Z,96.57
2022-10-22T04:40:44.367Z,96.41
2022-10-22T04:43:10.728Z,96.48
2022-10-22T04:45:37.121Z,96.71
2022-10-22T04:48:03.512Z,96.62
2022-10-22T04:50:30.858Z,96.42
2022-10-22T04:52:57.212Z,96.69
2022-10-22T04:55:23.564Z,96.61
2022-10-22T04:57:49.916Z,96.81
2022-10-22T05:00:16.632Z,96.67
2022-10-22T05:02:44.651Z,96.57
2022-10-22T05:05:11.894Z,96.71
2022-10-22T05:07:38.492Z,96.76
2022-10-22T05:10:05.276Z,96.59
2022-10-22T05:12:31.763Z,96.64
2022-10-22T05:14:58.107Z,96.66
2022-10-22T05:17:24.503Z,96.60
2022-10-22T05:19:50.832Z,96.68
2022-10-22T05:22:17.140Z,96.76
2022-10-22T05:24:43.774Z,96.71
2022-10-22T05:27:10.192Z,96.40
2022-10-22T05:29:36.678Z,96.58
2022-10-22T05:32:03.107Z,96.74
2022-10-22T05:34:29.419Z,96.39
2022-10-22T05:36:55.745Z,96.61
2022-10-22T05:39:22.064Z,96.59
2022-10-22T05:41:48.367Z,96.82
2022-10-22T05:44:14.996Z,96.68
2022-10-22T05:46:43.191Z,96.90
2022-10-22T05:49:15.171Z,96.77
2022-10-22T05:51:41.642Z,96.86
2022-10-22T05:54:08.848Z,96.91
2022-10-22T05:56:36.662Z,96.75
2022-10-22T06:01:35.572Z,96.91
2022-10-22T06:04:04.978Z,96.97
2022-10-22T06:06:40.835Z,97.05
2022-10-22T06:09:11.586Z,96.71
2022-10-22T06:11:37.932Z,96.81
2022-10-22T06:14:04.519Z,96.97
2022-10-22T06:16:31.937Z,96.87
2022-10-22T06:19:02.332Z,97.01
2022-10-22T06:21:30.085Z,97.15
2022-10-22T06:23:57.812Z,97.11
2022-10-22T06:26:24.448Z,97.04
2022-10-22T06:28:50.774Z,96.89
2022-10-22T06:31:17.188Z,97.19
2022-10-22T06:33:43.511Z,97.19
2022-10-22T06:36:12.833Z,97.18
2022-10-22T06:38:39.887Z,97.05
2022-10-22T06:41:12.060Z,97.01
2022-10-22T06:43:38.523Z,96.92
2022-10-22T06:46:09.584Z,97.06
2022-10-22T06:48:37.838Z,97.04
2022-10-22T06:51:06.316Z,97.00
2022-10-22T06:53:33.166Z,97.09
2022-10-22T06:55:59.523Z,96.86
2022-10-22T06:58:25.933Z,96.95
2022-10-22T07:01:01.896Z,96.98
2022-10-22T07:03:28.271Z,97.04
2022-10-22T07:05:54.617Z,96.95
2022-10-22T07:08:20.918Z,97.05
2022-10-22T07:10:47.233Z,97.03
2022-10-22T07:13:13.728Z,97.07
2022-10-22T07:15:40.048Z,97.14
2022-10-22T07:18:06.343Z,97.40
2022-10-22T07:20:32.733Z,97.25
2022-10-22T07:22:59.043Z,97.29
2022-10-22T07:25:25.432Z,97.33
2022-10-22T07:27:52.337Z,97.05
2022-10-22T07:30:18.742Z,97.17
2022-10-22T07:32:45.046Z,96.99
2022-10-22T07:35:11.392Z,97.02
2022-10-22T07:37:37.882Z,96.93
2022-10-22T07:40:04.912Z,96.87
2022-10-22T07:42:31.254Z,96.86
2022-10-22T07:44:57.628Z,96.78
2022-10-22T07:47:23.962Z,96.79
2022-10-22T07:49:50.315Z,96.73
2022-10-22T07:52:16.700Z,96.48
2022-10-22T07:54:42.996Z,96.58
2022-10-22T07:57:09.292Z,96.26
2022-10-22T07:59:35.599Z,96.04
2022-10-22T08:02:01.900Z,95.64
2022-10-22T08:04:28.272Z,95.53
2022-10-22T08:06:54.595Z,95.25
2022-10-22T08:09:20.977Z,94.97
2022-10-22T08:11:47.509Z,94.88
2022-10-22T08:14:13.948Z,94.47
2022-10-22T08:16:40.264Z,94.04
2022-10-22T08:19:06.731Z,93.61
2022-10-22T08:21:33.035Z,93.29
2022-10-22T08:23:59.386Z,93.02
2022-10-22T08:26:25.723Z,92.86
2022-10-22T08:28:52.066Z,92.63
2022-10-22T08:31:18.380Z,92.57
2022-10-22T08:33:44.696Z,92.03
2022-10-22T08:36:11.190Z,91.98
2022-10-22T08:38:37.611Z,92.14
2022-10-22T08:41:13.058Z,92.18
2022-10-22T08:44:06.763Z,92.07
2022-10-22T08:47:07.375Z,92.09
2022-10-22T08:49:39.789Z,91.95
2022-10-22T08:52:13.671Z,91.30
2022-10-22T08:54:59.575Z,91.24
2022-10-22T08:57:53.875Z,90.89
2022-10-22T09:00:47.700Z,90.72
2022-10-22T09:03:27.044Z,90.54
2022-10-22T09:05:56.516Z,90.50
2022-10-22T09:08:23.285Z,90.53
2022-10-22T09:10:55.732Z,90.14
2022-10-22T09:13:23.300Z,89.74
2022-10-22T09:15:55.766Z,89.59
2022-10-22T09:18:32.481Z,89.47
2022-10-22T09:21:09.889Z,89.16
2022-10-22T09:24:06.639Z,88.48
2022-10-22T09:26:37.757Z,88.36
2022-10-22T09:29:05.229Z,88.09
2022-10-22T09:31:33.192Z,86.82
2022-10-22T09:34:05.708Z,87.27
2022-10-22T09:36:32.405Z,87.13
2022-10-22T09:38:59.827Z,86.39
2022-10-22T09:41:32.128Z,85.78
2022-10-22T09:43:59.452Z,85.49
2022-10-22T09:46:29.752Z,85.65
2022-10-22T09:49:04.410Z,85.68
2022-10-22T09:51:51.835Z,85.48
2022-10-22T09:54:23.370Z,84.51
2022-10-22T09:56:58.483Z,84.91
2022-10-22T09:59:32.059Z,85.06
2022-10-22T10:02:19.627Z,84.92
2022-10-22T10:04:56.350Z,84.49
2022-10-22T10:07:26.039Z,83.88
2022-10-22T10:09:54.131Z,84.13
2022-10-22T10:15:36.451Z,83.63
2022-10-22T10:18:37.861Z,83.11
2022-10-22T10:21:16.739Z,82.20
2022-10-22T10:24:03.086Z,81.33
2022-10-22T10:26:58.467Z,81.15
2022-10-22T10:29:44.261Z,81.53
2022-10-22T10:32:46.324Z,81.17
2022-10-22T10:35:30.774Z,81.45
2022-10-22T10:38:18.575Z,81.46
2022-10-22T10:40:56.629Z,79.75
2022-10-22T10:43:50.476Z,78.55
2022-10-22T10:46:33.447Z,77.73
2022-10-22T10:49:24.152Z,78.22
2022-10-22T10:52:35.890Z,78.27
2022-10-22T10:55:14.643Z,78.48
2022-10-22T10:58:31.472Z,77.92
2022-10-22T11:01:03.660Z,78.03
2022-10-22T11:03:57.679Z,78.02
2022-10-22T11:06:26.313Z,76.88
2022-10-22T11:08:55.353Z,76.91
2022-10-22T11:11:29.970Z,76.03
2022-10-22T11:14:29.307Z,76.02
2022-10-22T11:17:06.442Z,76.70
2022-10-22T11:19:53.120Z,75.85
2022-10-22T11:22:37.888Z,75.69
2022-10-22T11:25:13.435Z,74.18
2022-10-22T11:27:45.464Z,73.65
2022-10-22T11:30:13.280Z,73.51
2022-10-22T11:32:42.798Z,72.73
2022-10-22T11:35:16.052Z,72.08
2022-10-22T11:37:45.496Z,71.75
2022-10-22T11:40:19.978Z,70.80
2022-10-22T11:42:52.262Z,71.54
2022-10-22T11:45:18.521Z,70.77
2022-10-22T11:48:10.575Z,71.52
2022-10-22T11:51:11.016Z,70.90
2022-10-22T11:53:39.223Z,70.92
2022-10-22T11:56:10.157Z,71.82
2022-10-22T11:58:42.189Z,71.62
2022-10-22T12:01:08.519Z,71.74
2022-10-22T12:03:34.799Z,72.18
2022-10-22T12:06:13.230Z,71.50
2022-10-22T12:09:07.162Z,72.75
2022-10-22T12:11:45.542Z,72.83
2022-10-22T12:14:29.744Z,71.18
2022-10-22T12:16:58.902Z,72.04
2022-10-22T12:19:31.875Z,71.93
2022-10-22T12:22:21.404Z,71.80
2022-10-22T12:24:50.027Z,72.39
2022-10-22T12:27:22.670Z,72.54
2022-10-22T12:29:54.089Z,72.05
2022-10-22T12:32:20.659Z,72.30
2022-10-22T12:37:18.039Z,70.53
2022-10-22T12:39:45.747Z,69.80
2022-10-22T12:42:17.725Z,67.57
2022-10-22T12:44:45.069Z,63.29
2022-10-22T12:47:16.997Z,64.37
2022-10-22T12:49:47.870Z,64.29
2022-10-22T12:52:18.434Z,62.51
2022-10-22T12:54:47.871Z,64.33
2022-10-22T12:57:17.196Z,63.59
2022-10-22T12:59:48.895Z,62.25
2022-10-22T13:02:21.401Z,62.17
2022-10-22T13:05:39.168Z,62.28
2022-10-22T13:08:10.452Z,60.05
2022-10-22T13:10:40.506Z,58.62
2022-10-22T13:13:07.263Z,60.89
2022-10-22T13:15:37.455Z,61.41
2022-10-22T13:18:17.375Z,63.00
2022-10-22T13:21:21.823Z,63.60
2022-10-22T13:23:54.437Z,63.14
2022-10-22T13:26:21.044Z,64.01
2022-10-22T13:28:56.362Z,64.71
2022-10-22T13:31:29.489Z,63.05
2022-10-22T13:33:58.786Z,62.16
2022-10-22T13:36:25.319Z,60.88
2022-10-22T13:38:51.901Z,61.26
2022-10-22T13:41:27.077Z,61.96
2022-10-22T13:43:54.487Z,61.32
2022-10-22T13:46:22.668Z,61.58
2022-10-22T13:48:52.448Z,61.10
2022-10-22T13:51:21.803Z,62.53
2022-10-22T13:53:49.920Z,62.88
2022-10-22T13:56:18.579Z,64.66
2022-10-22T13:58:46.428Z,65.02
2022-10-22T14:01:19.132Z,65.45
2022-10-22T14:03:47.041Z,66.41
2022-10-22T14:06:15.407Z,66.70
2022-10-22T14:08:43.261Z,66.87
2022-10-22T14:11:11.890Z,67.01
2022-10-22T14:13:38.866Z,67.00
2022-10-22T14:16:08.000Z,64.81
2022-10-22T14:18:35.512Z,65.79
2022-10-22T14:21:07.518Z,66.43
2022-10-22T14:23:35.938Z,66.38
2022-10-22T14:26:04.045Z,66.35
2022-10-22T14:28:34.143Z,65.24
2022-10-22T14:31:03.655Z,66.32
2022-10-22T14:33:33.551Z,66.83
2022-10-22T14:36:00.859Z,67.01
2022-10-22T14:38:27.248Z,66.97
2022-10-22T14:40:53.957Z,67.40
2022-10-22T14:43:29.734Z,68.18
2022-10-22T14:45:57.210Z,68.43
2022-10-22T14:48:24.210Z,68.75
2022-10-22T14:50:50.691Z,69.01
2022-10-22T14:53:17.329Z,69.44
2022-10-22T14:55:44.879Z,69.47
2022-10-22T14:58:12.235Z,69.67
2022-10-22T15:00:41.842Z,69.67
2022-10-22T15:03:08.386Z,70.15
2022-10-22T15:05:36.163Z,69.93
2022-10-22T15:08:02.497Z,70.14
2022-10-22T15:10:29.177Z,70.09
2022-10-22T15:12:55.541Z,70.59
2022-10-22T15:15:22.869Z,71.06
2022-10-22T15:17:50.144Z,71.12
2022-10-22T15:20:16.557Z,71.59
2022-10-22T15:22:43.204Z,72.02
2022-10-22T15:25:10.903Z,71.94
2022-10-22T15:27:37.256Z,71.71
2022-10-22T15:30:05.328Z,71.39
2022-10-22T15:32:33.489Z,71.92
2022-10-22T15:35:01.349Z,71.83
2022-10-22T15:37:27.716Z,71.97
2022-10-22T15:39:54.147Z,72.30
2022-10-22T15:42:20.539Z,72.24
2022-10-22T15:44:46.856Z,72.48
2022-10-22T15:47:13.268Z,72.79
2022-10-22T15:49:41.608Z,72.84
2022-10-22T15:52:08.924Z,73.10
2022-10-22T15:54:35.783Z,73.39
2022-10-22T15:57:03.870Z,73.59
2022-10-22T15:59:30.504Z,73.61
2022-10-22T16:01:56.866Z,73.66
2022-10-22T16:04:23.304Z,74.00
2022-10-22T16:06:54.917Z,74.09
2022-10-22T16:09:23.876Z,74.37
2022-10-22T16:14:23.985Z,74.58
2022-10-22T16:16:53.606Z,74.63
2022-10-22T16:19:22.095Z,74.81
2022-10-22T16:21:53.772Z,75.03
2022-10-22T16:24:21.004Z,75.11
2022-10-22T16:26:47.843Z,75.39
2022-10-22T16:29:14.530Z,75.43
2022-10-22T16:31:43.428Z,75.43
2022-10-22T16:34:09.784Z,75.78
2022-10-22T16:36:37.002Z,75.73
2022-10-22T16:39:04.288Z,75.88
2022-10-22T16:41:35.148Z,76.23
2022-10-22T16:44:04.420Z,76.74
2022-10-22T16:46:31.277Z,76.82
2022-10-22T16:48:57.780Z,77.00
2022-10-22T16:51:26.304Z,77.09
2022-10-22T16:53:53.312Z,77.14
2022-10-22T16:56:20.355Z,77.24
2022-10-22T16:58:49.637Z,77.48
2022-10-22T17:01:18.288Z,77.13
2022-10-22T17:03:45.114Z,77.30
2022-10-22T17:06:11.897Z,77.55
2022-10-22T17:08:39.774Z,78.03
2022-10-22T17:11:11.066Z,78.13
2022-10-22T17:13:39.611Z,78.34
2022-10-22T17:16:08.684Z,78.12
2022-10-22T17:18:37.244Z,78.35
2022-10-22T17:21:04.813Z,78.38
2022-10-22T17:23:31.282Z,78.34
2022-10-22T17:26:08.878Z,78.35
2022-10-22T17:28:36.412Z,78.83
2022-10-22T17:31:20.797Z,79.23
2022-10-22T17:33:48.790Z,80.11
2022-10-22T17:36:16.757Z,80.44
2022-10-22T17:38:43.457Z,80.27
2022-10-22T17:41:14.924Z,80.11
2022-10-22T17:43:41.371Z,79.88
2022-10-22T17:46:15.656Z,79.87
2022-10-22T17:48:41.973Z,79.96
2022-10-22T17:51:10.338Z,80.17
2022-10-22T17:53:40.339Z,80.50
2022-10-22T17:56:10.012Z,80.64
2022-10-22T17:58:37.249Z,80.67
2022-10-22T18:01:04.287Z,81.06
2022-10-22T18:03:30.712Z,81.33
2022-10-22T18:06:05.324Z,81.35
2022-10-22T18:08:31.676Z,81.87
2022-10-22T18:10:58.070Z,82.13
2022-10-22T18:13:24.419Z,81.95
2022-10-22T18:15:55.815Z,82.16
2022-10-22T18:18:23.171Z,82.59
2022-10-22T18:20:52.891Z,83.10
2022-10-22T18:23:19.324Z,82.93
2022-10-22T18:25:48.015Z,82.80
2022-10-22T18:28:19.103Z,82.80
2022-10-22T18:30:47.191Z,83.00
2022-10-22T18:33:15.012Z,82.81
2022-10-22T18:35:41.353Z,82.69
2022-10-22T18:38:08.512Z,82.70
2022-10-22T18:40:35.978Z,82.63
2022-10-22T18:43:03.427Z,82.70
2022-10-22T18:45:29.873Z,82.97
2022-10-22T18:47:56.217Z,83.05
2022-10-22T18:50:22.595Z,83.46
2022-10-22T18:52:49.001Z,83.26
2022-10-22T18:55:15.406Z,83.85
2022-10-22T18:57:41.736Z,83.82
2022-10-22T19:00:08.657Z,83.75
2022-10-22T19:02:34.973Z,83.63
2022-10-22T19:05:01.319Z,83.44
2022-10-22T19:07:27.628Z,83.61
2022-10-22T19:09:53.953Z,83.28
2022-10-22T19:12:21.523Z,83.37
2022-10-22T19:14:48.801Z,83.36
2022-10-22T19:17:15.149Z,83.68
2022-10-22T19:19:41.481Z,84.02
2022-10-22T19:22:07.827Z,84.00
2022-10-22T19:24:34.508Z,83.75
2022-10-22T19:27:00.956Z,83.53
2022-10-22T19:29:27.335Z,83.51
2022-10-22T19:31:53.828Z,83.51
2022-10-22T19:34:20.660Z,83.50
2022-10-22T19:36:47.172Z,83.44
2022-10-22T19:39:17.115Z,83.55
2022-10-22T19:41:43.726Z,83.95
2022-10-22T19:44:10.428Z,84.04
2022-10-22T19:46:37.236Z,84.18
2022-10-22T19:49:04.475Z,84.37
2022-10-22T19:51:33.253Z,84.89
2022-10-22T19:54:07.760Z,84.62
2022-10-22T19:56:35.744Z,85.13
2022-10-22T19:59:03.597Z,85.44
2022-10-22T20:01:33.920Z,85.31
2022-10-22T20:04:01.331Z,85.45
2022-10-22T20:06:27.696Z,85.41
2022-10-22T20:08:56.213Z,85.57
2022-10-22T20:11:25.659Z,85.38
2022-10-22T20:13:52.777Z,85.67
2022-10-22T20:16:22.999Z,85.89
2022-10-22T20:18:49.634Z,85.93
2022-10-22T20:21:19.128Z,85.94
2022-10-22T20:23:46.392Z,85.90
2022-10-22T20:26:13.355Z,85.92
2022-10-22T20:28:40.072Z,85.94
2022-10-22T20:31:14.629Z,85.78
2022-10-22T20:33:41.018Z,85.44
2022-10-22T20:36:12.696Z,85.57
2022-10-22T20:38:39.188Z,85.27
2022-10-22T20:41:10.009Z,85.64
2022-10-22T20:43:36.392Z,85.98
2022-10-22T20:46:03.471Z,85.81
2022-10-22T20:48:31.245Z,85.51
2022-10-22T20:50:59.203Z,85.56
2022-10-22T20:53:26.305Z,85.93
2022-10-22T20:55:56.915Z,85.96
2022-10-22T20:58:25.952Z,85.78
2022-10-22T21:00:55.007Z,85.59
2022-10-22T21:03:21.882Z,85.90
2022-10-22T21:05:48.527Z,85.81
2022-10-22T21:08:17.371Z,85.62
2022-10-22T21:10:46.259Z,85.27
2022-10-22T21:13:13.815Z,85.63
2022-10-22T21:15:40.316Z,85.39
2022-10-22T21:18:07.435Z,85.59
2022-10-22T21:20:33.829Z,85.64
2022-10-22T21:23:00.240Z,85.71
2022-10-22T21:25:26.548Z,86.19
2022-10-22T21:27:52.894Z,86.37
2022-10-22T21:30:19.213Z,86.22
2022-10-22T21:32:45.533Z,86.40
2022-10-22T21:35:12.213Z,86.48
2022-10-22T21:37:38.696Z,86.36
2022-10-22T21:40:05.815Z,86.54
2022-10-22T21:42:32.144Z,86.52
2022-10-22T21:44:58.471Z,86.34
2022-10-22T21:47:24.930Z,86.45
2022-10-22T21:49:51.308Z,86.42
2022-10-22T21:52:17.708Z,86.71
2022-10-22T21:54:44.043Z,86.78
2022-10-22T21:57:10.417Z,86.91
2022-10-22T21:59:36.809Z,87.11
2022-10-22T22:02:05.664Z,86.75
2022-10-22T22:04:33.021Z,86.71
2022-10-22T22:06:59.338Z,86.65
2022-10-22T22:09:25.699Z,86.99
2022-10-22T22:11:52.038Z,86.72
2022-10-22T22:14:18.363Z,86.86
2022-10-22T22:16:44.707Z,86.98
2022-10-22T22:19:12.176Z,86.53
2022-10-22T22:21:40.180Z,86.45
2022-10-22T22:24:07.619Z,86.65
2022-10-22T22:26:34.120Z,86.46
2022-10-22T22:29:00.590Z,86.71
2022-10-22T22:31:32.616Z,86.48
2022-10-22T22:34:13.264Z,86.25
2022-10-22T22:36:49.288Z,86.69
2022-10-22T22:39:18.984Z,86.50
2022-10-22T22:41:45.722Z,86.67
2022-10-22T22:44:12.757Z,86.83
2022-10-22T22:46:39.235Z,86.79
2022-10-22T22:49:06.170Z,86.86
2022-10-22T22:51:32.945Z,86.72
2022-10-22T22:54:00.315Z,86.96
2022-10-22T22:56:29.336Z,87.09
2022-10-22T22:58:56.659Z,86.97
2022-10-22T23:01:26.298Z,86.79
2022-10-22T23:03:58.856Z,86.86
2022-10-22T23:06:27.707Z,87.23
2022-10-22T23:08:55.687Z,87.21
2022-10-22T23:11:23.780Z,87.29
2022-10-22T23:13:58.770Z,87.22
2022-10-22T23:16:28.398Z,87.61
2022-10-22T23:18:55.541Z,87.39
2022-10-22T23:21:25.217Z,87.44
2022-10-22T23:23:54.564Z,87.43
2022-10-22T23:26:30.051Z,87.41
2022-10-22T23:29:00.994Z,87.58
2022-10-22T23:31:27.313Z,87.13
2022-10-22T23:33:53.675Z,87.17
2022-10-22T23:36:20.023Z,87.32
2022-10-22T23:38:46.673Z,87.33
2022-10-22T23:41:13.001Z,87.31
2022-10-22T23:43:39.367Z,87.61
2022-10-22T23:46:09.073Z,87.56
2022-10-22T23:48:36.205Z,87.55
2022-10-22T23:51:11.851Z,87.44
2022-10-22T23:53:39.052Z,87.21
2022-10-22T23:56:07.608Z,87.56
2022-10-22T23:58:35.067Z,87.45
